createdAt,value
2018-09-09T00:01:47.720Z,99897.72
2018-09-09T00:04:16.263Z,99897.67
2018-09-09T00:06:43.792Z,99885.97
2018-09-09T00:09:11.362Z,99886.86
2018-09-09T00:11:39.228Z,99888.75
2018-09-09T00:14:07.227Z,99881.59
2018-09-09T00:16:35.171Z,99886.41
2018-09-09T00:19:03.176Z,99884.38
2018-09-09T00:21:30.778Z,99883.83
2018-09-09T00:23:58.378Z,99886.43
2018-09-09T00:26:26.046Z,99876.94
2018-09-09T00:28:53.712Z,99872.36
2018-09-09T00:31:21.248Z,99869.77
2018-09-09T00:33:48.802Z,99877.48
2018-09-09T00:36:16.355Z,99875.28
2018-09-09T00:38:43.935Z,99883.74
2018-09-09T00:41:12.445Z,99873.27
2018-09-09T00:43:39.962Z,99873.80
2018-09-09T00:46:07.520Z,99865.09
2018-09-09T00:48:35.035Z,99876.41
2018-09-09T00:51:17.490Z,99880.72
2018-09-09T00:53:45.084Z,99879.03
2018-09-09T00:56:12.657Z,99863.25
2018-09-09T00:58:40.329Z,99869.41
2018-09-09T01:01:07.838Z,99882.86
2018-09-09T01:03:35.395Z,99880.66
2018-09-09T01:06:02.942Z,99874.36
2018-09-09T01:08:30.487Z,99891.89
2018-09-09T01:10:58.027Z,99882.77
2018-09-09T01:13:25.564Z,99879.73
2018-09-09T01:15:53.141Z,99878.89
2018-09-09T01:18:20.683Z,99876.97
2018-09-09T01:20:48.243Z,99861.73
2018-09-09T01:23:15.762Z,99872.59
2018-09-09T01:25:43.288Z,99871.95
2018-09-09T01:28:12.889Z,99864.44
2018-09-09T01:30:40.436Z,99860.53
2018-09-09T01:33:07.954Z,99861.73
2018-09-09T01:35:35.516Z,99861.13
2018-09-09T01:38:03.171Z,99854.58
2018-09-09T01:40:30.740Z,99855.60
2018-09-09T01:42:58.309Z,99849.86
2018-09-09T01:45:25.830Z,99855.53
2018-09-09T01:47:53.380Z,99867.63
2018-09-09T01:50:20.952Z,99877.72
2018-09-09T01:52:50.549Z,99885.95
2018-09-09T01:55:18.073Z,99889.17
2018-09-09T01:57:45.670Z,99890.71
2018-09-09T02:00:13.198Z,99884.54
2018-09-09T02:02:40.706Z,99881.12
2018-09-09T02:05:12.175Z,99883.37
2018-09-09T02:07:39.713Z,99882.38
2018-09-09T02:10:07.296Z,99885.83
2018-09-09T02:12:34.835Z,99889.27
2018-09-09T02:15:02.418Z,99886.25
2018-09-09T02:17:29.959Z,99880.83
2018-09-09T02:19:57.526Z,99889.44
2018-09-09T02:22:25.092Z,99886.37
2018-09-09T02:24:52.635Z,99887.47
2018-09-09T02:27:20.207Z,99881.63
2018-09-09T02:29:47.799Z,99884.38
2018-09-09T02:32:15.392Z,99885.42
2018-09-09T02:34:42.980Z,99883.28
2018-09-09T02:37:10.514Z,99874.55
2018-09-09T02:39:38.066Z,99872.91
2018-09-09T02:42:05.626Z,99870.79
2018-09-09T02:44:33.135Z,99870.79
2018-09-09T02:47:00.647Z,99871.33
2018-09-09T02:49:28.371Z,99870.77
2018-09-09T02:51:55.964Z,99871.72
2018-09-09T02:54:23.556Z,99879.72
2018-09-09T02:56:51.096Z,99879.60
2018-09-09T02:59:18.636Z,99884.43
2018-09-09T03:01:46.218Z,99881.79
2018-09-09T03:04:13.768Z,99883.13
2018-09-09T03:06:41.393Z,99881.59
2018-09-09T03:09:08.943Z,99872.80
2018-09-09T03:11:36.566Z,99879.03
2018-09-09T03:14:04.088Z,99884.88
2018-09-09T03:16:32.780Z,99881.69
2018-09-09T03:19:05.133Z,99871.42
2018-09-09T03:21:34.736Z,99866.11
2018-09-09T03:24:04.390Z,99867.73
2018-09-09T03:26:31.986Z,99863.87
2018-09-09T03:28:59.604Z,99867.05
2018-09-09T03:31:27.367Z,99872.29
2018-09-09T03:33:56.036Z,99876.30
2018-09-09T03:36:29.070Z,99858.43
2018-09-09T03:38:56.693Z,99847.60
2018-09-09T03:41:24.216Z,99843.24
2018-09-09T03:43:51.791Z,99843.50
2018-09-09T03:46:19.356Z,99843.02
2018-09-09T03:48:46.945Z,99839.07
2018-09-09T03:51:20.516Z,99827.78
2018-09-09T03:53:48.103Z,99852.55
2018-09-09T03:56:15.628Z,99867.26
2018-09-09T03:58:43.140Z,99875.12
2018-09-09T04:01:10.712Z,99884.38
2018-09-09T04:03:38.257Z,99893.84
2018-09-09T04:06:05.786Z,99884.73
2018-09-09T04:08:33.369Z,99885.78
2018-09-09T04:11:00.981Z,99881.77
2018-09-09T04:13:28.518Z,99884.52
2018-09-09T04:15:56.056Z,99881.48
2018-09-09T04:18:23.626Z,99883.27
2018-09-09T04:20:51.167Z,99883.15
2018-09-09T04:23:18.717Z,99884.20
2018-09-09T04:25:49.529Z,99875.82
2018-09-09T04:28:17.110Z,99870.81
2018-09-09T04:30:44.706Z,99864.39
2018-09-09T04:33:12.269Z,99866.99
2018-09-09T04:35:39.811Z,99860.75
2018-09-09T04:38:07.408Z,99863.59
2018-09-09T04:40:34.924Z,99868.88
2018-09-09T04:43:09.151Z,99870.56
2018-09-09T04:45:36.676Z,99864.09
2018-09-09T04:48:04.254Z,99867.97
2018-09-09T04:50:31.837Z,99874.16
2018-09-09T04:52:59.346Z,99874.94
2018-09-09T04:55:26.902Z,99877.73
2018-09-09T04:57:54.466Z,99873.43
2018-09-09T05:00:22.031Z,99878.45
2018-09-09T05:02:49.544Z,99887.41
2018-09-09T05:05:17.113Z,99882.88
2018-09-09T05:07:53.252Z,99889.94
2018-09-09T05:10:20.770Z,99897.48
2018-09-09T05:12:48.284Z,99891.63
2018-09-09T05:15:15.873Z,99892.44
2018-09-09T05:17:43.410Z,99892.91
2018-09-09T05:20:10.971Z,99894.63
2018-09-09T05:22:38.521Z,99903.32
2018-09-09T05:25:09.170Z,99904.34
2018-09-09T05:27:36.711Z,99898.97
2018-09-09T05:30:04.243Z,99902.80
2018-09-09T05:32:31.827Z,99909.06
2018-09-09T05:34:59.407Z,99911.06
2018-09-09T05:37:27.098Z,99904.00
2018-09-09T05:39:54.635Z,99900.02
2018-09-09T05:42:22.307Z,99904.89
2018-09-09T05:44:49.909Z,99895.56
2018-09-09T05:47:17.394Z,99893.91
2018-09-09T05:49:45.295Z,99895.34
2018-09-09T05:52:13.060Z,99899.02
2018-09-09T05:54:40.615Z,99908.70
2018-09-09T05:57:19.601Z,99909.08
2018-09-09T05:59:47.183Z,99914.64
2018-09-09T06:02:14.774Z,99910.36
2018-09-09T06:04:42.298Z,99926.36
2018-09-09T06:07:09.867Z,99928.42
2018-09-09T06:09:37.441Z,99936.16
2018-09-09T06:12:08.157Z,99941.78
2018-09-09T06:14:35.720Z,99945.23
2018-09-09T06:17:03.280Z,99942.69
2018-09-09T06:19:30.831Z,99944.89
2018-09-09T06:21:58.387Z,99951.73
2018-09-09T06:24:25.940Z,99949.39
2018-09-09T06:26:55.572Z,99955.19
2018-09-09T06:29:23.100Z,99953.50
2018-09-09T06:31:52.686Z,99962.44
2018-09-09T06:34:20.255Z,99958.14
2018-09-09T06:36:47.773Z,99957.16
2018-09-09T06:39:15.359Z,99961.59
2018-09-09T06:41:42.921Z,99954.31
2018-09-09T06:44:12.391Z,99957.53
2018-09-09T06:46:39.963Z,99958.34
2018-09-09T06:49:07.521Z,99967.94
2018-09-09T06:51:41.883Z,99962.20
2018-09-09T06:54:09.445Z,99959.33
2018-09-09T06:56:37.006Z,99965.50
2018-09-09T06:59:04.556Z,99957.06
2018-09-09T07:01:33.270Z,99955.86
2018-09-09T07:04:00.837Z,99954.59
2018-09-09T07:06:28.392Z,99956.66
2018-09-09T07:08:55.915Z,99959.30
2018-09-09T07:11:27.880Z,99958.85
2018-09-09T07:13:55.300Z,99960.58
2018-09-09T07:16:22.857Z,99958.58
2018-09-09T07:18:54.669Z,99952.05
2018-09-09T07:21:22.227Z,99958.30
2018-09-09T07:23:49.797Z,99956.01
2018-09-09T07:26:18.039Z,99964.35
2018-09-09T07:28:45.613Z,99961.56
2018-09-09T07:31:13.174Z,99962.70
2018-09-09T07:33:40.720Z,99961.44
2018-09-09T07:36:08.258Z,99973.95
2018-09-09T07:38:35.858Z,99971.35
2018-09-09T07:41:03.385Z,99974.92
2018-09-09T07:43:33.001Z,99980.66
2018-09-09T07:46:02.537Z,99981.06
2018-09-09T07:48:30.038Z,99979.77
2018-09-09T07:53:23.670Z,99979.92
2018-09-09T07:55:51.211Z,99982.22
2018-09-09T07:58:18.802Z,99981.19
2018-09-09T08:00:46.412Z,99979.28
2018-09-09T08:03:13.933Z,99981.95
2018-09-09T08:05:41.516Z,99984.77
2018-09-09T08:08:09.058Z,99989.27
2018-09-09T08:10:36.599Z,99982.19
2018-09-09T08:13:04.173Z,99983.23
2018-09-09T08:15:31.697Z,99986.99
2018-09-09T08:17:59.433Z,99987.13
2018-09-09T08:20:26.938Z,99982.67
2018-09-09T08:22:54.525Z,99986.00
2018-09-09T08:25:22.188Z,99983.88
2018-09-09T08:27:49.713Z,99994.21
2018-09-09T08:30:21.170Z,99987.86
2018-09-09T08:32:48.689Z,99991.23
2018-09-09T08:35:16.269Z,99992.49
2018-09-09T08:37:43.845Z,99988.48
2018-09-09T08:40:11.420Z,99985.56
2018-09-09T08:42:39.003Z,99991.94
2018-09-09T08:45:06.512Z,99987.38
2018-09-09T08:47:34.096Z,99998.34
2018-09-09T08:50:02.607Z,99995.05
2018-09-09T08:52:30.178Z,99999.66
2018-09-09T08:54:57.864Z,100003.75
2018-09-09T08:57:25.471Z,99997.06
2018-09-09T08:59:53.146Z,100000.77
2018-09-09T09:02:25.166Z,100002.83
2018-09-09T09:04:52.745Z,100001.34
2018-09-09T09:07:20.329Z,100008.50
2018-09-09T09:09:47.860Z,100005.25
2018-09-09T09:12:15.499Z,100008.62
2018-09-09T09:14:43.057Z,100013.09
2018-09-09T09:17:10.645Z,100013.91
2018-09-09T09:19:38.232Z,100011.42
2018-09-09T09:22:05.770Z,100009.87
2018-09-09T09:24:35.403Z,100005.17
2018-09-09T09:27:03.041Z,100001.56
2018-09-09T09:29:30.579Z,100000.50
2018-09-09T09:31:58.097Z,99997.50
2018-09-09T09:34:25.680Z,99998.45
2018-09-09T09:36:53.214Z,99990.39
2018-09-09T09:39:20.839Z,99996.88
2018-09-09T09:41:48.583Z,99992.77
2018-09-09T09:44:16.108Z,99988.79
2018-09-09T09:46:43.699Z,99996.28
2018-09-09T09:49:11.900Z,99994.25
2018-09-09T09:51:39.473Z,99994.59
2018-09-09T09:54:06.990Z,99993.09
2018-09-09T09:56:34.562Z,99994.77
2018-09-09T09:59:02.229Z,100000.92
2018-09-09T10:01:29.796Z,100001.35
2018-09-09T10:03:57.336Z,99994.69
2018-09-09T10:06:24.974Z,99996.21
2018-09-09T10:08:52.565Z,99992.23
2018-09-09T10:11:20.366Z,100004.44
2018-09-09T10:13:51.675Z,99999.41
2018-09-09T10:16:20.531Z,100000.08
2018-09-09T10:18:49.370Z,100004.02
2018-09-09T10:21:18.185Z,100013.81
2018-09-09T10:23:45.809Z,100008.61
2018-09-09T10:26:13.523Z,100006.97
2018-09-09T10:28:42.203Z,100007.38
2018-09-09T10:31:10.925Z,100010.11
2018-09-09T10:33:39.651Z,99999.30
2018-09-09T10:36:08.500Z,99999.56
2018-09-09T10:38:37.355Z,100007.39
2018-09-09T10:41:05.014Z,100009.47
2018-09-09T10:43:32.601Z,100007.24
2018-09-09T10:46:01.348Z,100006.78
2018-09-09T10:48:28.970Z,100012.56
2018-09-09T10:50:57.608Z,99998.95
2018-09-09T10:53:29.797Z,100010.02
2018-09-09T10:55:57.545Z,100014.47
2018-09-09T10:58:25.264Z,100015.31
2018-09-09T11:00:53.108Z,100014.72
2018-09-09T11:03:20.652Z,100013.52
2018-09-09T11:05:48.337Z,100016.12
2018-09-09T11:08:16.116Z,100016.82
2018-09-09T11:10:43.855Z,100014.09
2018-09-09T11:13:11.428Z,100009.22
2018-09-09T11:15:39.266Z,100013.55
2018-09-09T11:18:08.127Z,100011.75
2018-09-09T11:20:35.819Z,100014.77
2018-09-09T11:23:03.354Z,100011.00
2018-09-09T11:25:30.905Z,100006.98
2018-09-09T11:27:58.548Z,100003.45
2018-09-09T11:30:26.130Z,100012.36
2018-09-09T11:32:53.699Z,100010.94
2018-09-09T11:35:21.487Z,100006.63
2018-09-09T11:37:49.174Z,100001.20
2018-09-09T11:40:17.516Z,100000.31
2018-09-09T11:42:48.912Z,99999.91
2018-09-09T11:45:16.551Z,99994.03
2018-09-09T11:47:44.108Z,99991.83
2018-09-09T11:50:11.658Z,99988.31
2018-09-09T11:52:39.221Z,99981.64
2018-09-09T11:55:06.804Z,99982.97
2018-09-09T11:57:34.410Z,99980.41
2018-09-09T12:00:02.241Z,99986.17
2018-09-09T12:02:29.817Z,99984.45
2018-09-09T12:04:57.345Z,99979.23
2018-09-09T12:07:24.893Z,99978.34
2018-09-09T12:09:52.633Z,99972.82
2018-09-09T12:12:20.152Z,99972.70
2018-09-09T12:14:47.715Z,99966.17
2018-09-09T12:17:15.274Z,99962.92
2018-09-09T12:19:42.843Z,99975.48
2018-09-09T12:22:10.380Z,99972.77
2018-09-09T12:24:37.967Z,99971.63
2018-09-09T12:27:08.800Z,99967.56
2018-09-09T12:29:36.355Z,99974.92
2018-09-09T12:32:03.938Z,99969.41
2018-09-09T12:34:31.484Z,99971.20
2018-09-09T12:36:59.067Z,99971.52
2018-09-09T12:39:26.641Z,99972.12
2018-09-09T12:41:54.219Z,99973.05
2018-09-09T12:44:39.490Z,99978.41
2018-09-09T12:47:23.854Z,99973.64
2018-09-09T12:49:51.435Z,99974.29
2018-09-09T12:52:18.983Z,99970.61
2018-09-09T12:54:46.513Z,99966.42
2018-09-09T12:57:14.127Z,99971.73
2018-09-09T12:59:41.642Z,99977.52
2018-09-09T13:02:09.166Z,99973.16
2018-09-09T13:04:36.752Z,99971.91
2018-09-09T13:07:04.271Z,99965.74
2018-09-09T13:09:31.831Z,99970.01
2018-09-09T13:11:59.383Z,99964.28
2018-09-09T13:14:26.935Z,99965.39
2018-09-09T13:16:54.482Z,99971.58
2018-09-09T13:19:22.068Z,99966.00
2018-09-09T13:21:50.684Z,99969.80
2018-09-09T13:24:18.253Z,99973.69
2018-09-09T13:26:45.782Z,99975.80
2018-09-09T13:29:13.363Z,99973.09
2018-09-09T13:31:40.902Z,99974.88
2018-09-09T13:34:08.489Z,99966.22
2018-09-09T13:36:36.005Z,99960.23
2018-09-09T13:39:03.572Z,99965.52
2018-09-09T13:41:31.157Z,99967.67
2018-09-09T13:43:58.673Z,99968.10
2018-09-09T13:46:26.250Z,99964.05
2018-09-09T13:48:53.780Z,99965.48
2018-09-09T13:51:21.305Z,99957.41
2018-09-09T13:53:48.869Z,99962.84
2018-09-09T13:56:16.438Z,99970.75
2018-09-09T13:58:44.075Z,99966.33
2018-09-09T14:01:11.604Z,99960.97
2018-09-09T14:03:39.195Z,99958.02
2018-09-09T14:06:06.799Z,99960.01
2018-09-09T14:08:34.416Z,99963.13
2018-09-09T14:11:02.023Z,99956.06
2018-09-09T14:13:29.531Z,99959.48
2018-09-09T14:16:05.849Z,99957.17
2018-09-09T14:18:33.376Z,99948.45
2018-09-09T14:21:00.974Z,99955.77
2018-09-09T14:23:28.486Z,99953.84
2018-09-09T14:25:56.054Z,99958.22
2018-09-09T14:28:23.667Z,99956.98
2018-09-09T14:30:51.291Z,99952.56
2018-09-09T14:33:18.819Z,99954.81
2018-09-09T14:35:46.370Z,99952.82
2018-09-09T14:38:14.906Z,99952.73
2018-09-09T14:40:42.490Z,99963.22
2018-09-09T14:43:10.021Z,99966.59
2018-09-09T14:45:37.591Z,99961.72
2018-09-09T14:48:05.112Z,99965.63
2018-09-09T14:50:32.631Z,99972.99
2018-09-09T14:53:00.228Z,99972.88
2018-09-09T14:55:27.786Z,99960.63
2018-09-09T14:57:55.341Z,99963.41
2018-09-09T15:00:22.914Z,99962.38
2018-09-09T15:02:50.506Z,99957.95
2018-09-09T15:05:18.041Z,99959.09
2018-09-09T15:07:45.614Z,99962.75
2018-09-09T15:10:13.141Z,99961.52
2018-09-09T15:12:40.693Z,99965.25
2018-09-09T15:15:08.250Z,99953.09
2018-09-09T15:17:35.820Z,99954.17
2018-09-09T15:20:03.399Z,99948.80
2018-09-09T15:22:31.045Z,99947.36
2018-09-09T15:24:58.538Z,99951.79
2018-09-09T15:27:26.154Z,99954.97
2018-09-09T15:29:54.063Z,99950.17
2018-09-09T15:32:21.593Z,99944.66
2018-09-09T15:34:49.098Z,99944.51
2018-09-09T15:37:16.680Z,99952.64
2018-09-09T15:39:44.209Z,99945.11
2018-09-09T15:42:11.789Z,99950.66
2018-09-09T15:44:39.328Z,99943.80
2018-09-09T15:47:10.819Z,99943.73
2018-09-09T15:49:38.337Z,99939.91
2018-09-09T15:52:05.936Z,99944.27
2018-09-09T15:54:33.501Z,99940.19
2018-09-09T15:57:01.072Z,99939.52
2018-09-09T15:59:30.800Z,99941.77
2018-09-09T16:01:58.335Z,99942.38
2018-09-09T16:04:25.925Z,99935.42
2018-09-09T16:06:53.473Z,99936.96
2018-09-09T16:09:21.031Z,99940.59
2018-09-09T16:11:48.586Z,99939.64
2018-09-09T16:14:16.174Z,99937.36
2018-09-09T16:16:43.727Z,99930.52
2018-09-09T16:19:11.245Z,99929.47
2018-09-09T16:21:38.825Z,99925.22
2018-09-09T16:24:06.351Z,99919.47
2018-09-09T16:26:33.924Z,99920.03
2018-09-09T16:29:01.490Z,99927.02
2018-09-09T16:31:29.011Z,99921.66
2018-09-09T16:33:56.561Z,99927.47
2018-09-09T16:36:24.106Z,99917.41
2018-09-09T16:38:51.673Z,99916.53
2018-09-09T16:41:19.252Z,99916.75
2018-09-09T16:43:46.780Z,99919.45
2018-09-09T16:46:14.369Z,99922.27
2018-09-09T16:48:41.871Z,99923.63
2018-09-09T16:51:09.475Z,99920.53
2018-09-09T16:53:37.031Z,99919.13
2018-09-09T16:56:04.542Z,99919.90
2018-09-09T16:58:32.103Z,99918.48
2018-09-09T17:00:59.689Z,99917.80
2018-09-09T17:03:27.259Z,99915.67
2018-09-09T17:05:54.824Z,99918.04
2018-09-09T17:08:22.560Z,99917.73
2018-09-09T17:10:50.114Z,99911.04
2018-09-09T17:13:17.689Z,99916.39
2018-09-09T17:15:45.244Z,99915.43
2018-09-09T17:18:12.833Z,99912.47
2018-09-09T17:20:40.358Z,99914.69
2018-09-09T17:23:07.903Z,99918.33
2018-09-09T17:25:35.411Z,99925.22
2018-09-09T17:28:03.119Z,99920.53
2018-09-09T17:30:30.618Z,99908.09
2018-09-09T17:32:58.177Z,99918.94
2018-09-09T17:35:25.788Z,99917.22
2018-09-09T17:37:53.318Z,99922.86
2018-09-09T17:40:20.828Z,99916.77
2018-09-09T17:42:48.398Z,99926.67
2018-09-09T17:45:15.939Z,99921.55
2018-09-09T17:47:43.549Z,99921.94
2018-09-09T17:50:11.098Z,99926.88
2018-09-09T17:52:38.643Z,99926.02
2018-09-09T17:55:06.174Z,99926.48
2018-09-09T17:57:33.772Z,99922.68
2018-09-09T18:00:01.334Z,99918.27
2018-09-09T18:02:28.880Z,99917.64
2018-09-09T18:04:56.433Z,99923.81
2018-09-09T18:07:24.051Z,99925.06
2018-09-09T18:09:51.574Z,99923.66
2018-09-09T18:12:19.150Z,99926.21
2018-09-09T18:14:46.808Z,99927.17
2018-09-09T18:17:14.395Z,99928.04
2018-09-09T18:19:41.917Z,99927.66
2018-09-09T18:22:09.488Z,99926.91
2018-09-09T18:24:37.022Z,99929.78
2018-09-09T18:27:04.606Z,99932.32
2018-09-09T18:29:33.202Z,99935.73
2018-09-09T18:32:00.785Z,99933.33
2018-09-09T18:34:28.313Z,99937.14
2018-09-09T18:36:55.842Z,99934.23
2018-09-09T18:39:23.432Z,99939.40
2018-09-09T18:41:51.115Z,99936.63
2018-09-09T18:44:18.869Z,99936.09
2018-09-09T18:46:47.522Z,99936.70
2018-09-09T18:49:15.168Z,99939.33
2018-09-09T18:51:42.773Z,99933.70
2018-09-09T18:54:12.674Z,99937.06
2018-09-09T18:56:41.454Z,99940.69
2018-09-09T18:59:10.975Z,99945.89
2018-09-09T19:01:40.644Z,99943.95
2018-09-09T19:04:09.280Z,99949.77
2018-09-09T19:06:36.849Z,99942.64
2018-09-09T19:09:04.570Z,99937.99
2018-09-09T19:11:32.304Z,99940.17
2018-09-09T19:13:59.902Z,99945.09
2018-09-09T19:16:27.398Z,99948.59
2018-09-09T19:18:55.055Z,99946.98
2018-09-09T19:21:22.609Z,99945.17
2018-09-09T19:23:50.204Z,99940.63
2018-09-09T19:26:18.332Z,99939.63
2018-09-09T19:28:45.972Z,99943.36
2018-09-09T19:31:13.480Z,99937.69
2018-09-09T19:33:41.275Z,99943.83
2018-09-09T19:36:08.803Z,99941.67
2018-09-09T19:38:36.435Z,99941.67
2018-09-09T19:41:03.984Z,99942.73
2018-09-09T19:43:31.720Z,99940.50
2018-09-09T19:45:59.297Z,99944.33
2018-09-09T19:48:26.909Z,99959.83
2018-09-09T19:50:54.617Z,99952.36
2018-09-09T19:53:22.150Z,99949.30
2018-09-09T19:55:49.714Z,99948.49
2018-09-09T19:58:17.345Z,99949.84
2018-09-09T20:00:45.124Z,99943.77
2018-09-09T20:03:14.761Z,99946.64
2018-09-09T20:05:43.085Z,99947.26
2018-09-09T20:08:10.643Z,99943.34
2018-09-09T20:10:38.190Z,99949.43
2018-09-09T20:13:05.833Z,99947.59
2018-09-09T20:15:33.428Z,99950.13
2018-09-09T20:18:01.049Z,99943.62
2018-09-09T20:20:28.636Z,99949.37
2018-09-09T20:22:56.246Z,99952.12
2018-09-09T20:25:23.751Z,99952.73
2018-09-09T20:27:51.300Z,99954.72
2018-09-09T20:30:18.977Z,99958.12
2018-09-09T20:32:46.567Z,99957.84
2018-09-09T20:35:14.107Z,99959.03
2018-09-09T20:37:41.645Z,99961.80
2018-09-09T20:40:09.228Z,99959.62
2018-09-09T20:42:36.735Z,99967.47
2018-09-09T20:45:04.335Z,99964.86
2018-09-09T20:47:31.915Z,99957.91
2018-09-09T20:49:59.458Z,99959.80
2018-09-09T20:52:27.008Z,99959.59
2018-09-09T20:54:54.529Z,99963.37
2018-09-09T20:57:22.098Z,99966.19
2018-09-09T20:59:49.710Z,99959.78
2018-09-09T21:02:17.229Z,99960.35
2018-09-09T21:04:44.776Z,99960.80
2018-09-09T21:07:12.352Z,99963.16
2018-09-09T21:09:39.891Z,99959.33
2018-09-09T21:12:07.624Z,99953.09
2018-09-09T21:14:35.208Z,99956.59
2018-09-09T21:17:02.759Z,99949.37
2018-09-09T21:19:30.316Z,99951.86
2018-09-09T21:21:57.881Z,99952.60
2018-09-09T21:24:26.203Z,99952.36
2018-09-09T21:26:53.958Z,99941.65
2018-09-09T21:29:21.660Z,99947.41
2018-09-09T21:31:49.233Z,99948.07
2018-09-09T21:34:16.801Z,99947.16
2018-09-09T21:36:44.331Z,99938.57
2018-09-09T21:39:11.879Z,99939.16
2018-09-09T21:41:39.574Z,99938.06
2018-09-09T21:44:07.156Z,99935.13
2018-09-09T21:46:34.781Z,99935.88
2018-09-09T21:49:02.360Z,99930.22
2018-09-09T21:51:29.897Z,99932.95
2018-09-09T21:53:57.477Z,99924.31
2018-09-09T21:56:25.003Z,99925.02
2018-09-09T21:58:52.566Z,99922.81
2018-09-09T22:01:20.127Z,99920.61
2018-09-09T22:03:47.823Z,99916.00
2018-09-09T22:06:16.423Z,99917.83
2018-09-09T22:08:43.951Z,99914.41
2018-09-09T22:11:11.546Z,99913.05
2018-09-09T22:13:39.166Z,99921.59
2018-09-09T22:16:06.767Z,99914.98
2018-09-09T22:18:34.287Z,99904.28
2018-09-09T22:21:02.795Z,99902.69
2018-09-09T22:23:30.363Z,99905.23
2018-09-09T22:25:57.923Z,99906.83
2018-09-09T22:28:25.472Z,99901.34
2018-09-09T22:30:53.028Z,99903.71
2018-09-09T22:33:20.553Z,99900.57
2018-09-09T22:35:48.118Z,99905.81
2018-09-09T22:38:15.761Z,99897.97
2018-09-09T22:40:43.306Z,99900.42
2018-09-09T22:43:10.995Z,99902.76
2018-09-09T22:45:38.736Z,99906.53
2018-09-09T22:48:06.297Z,99906.23
2018-09-09T22:50:34.890Z,99900.66
2018-09-09T22:53:02.430Z,99912.97
2018-09-09T22:55:30.017Z,99903.03
2018-09-09T22:57:57.588Z,99894.70
2018-09-09T23:00:25.119Z,99904.13
2018-09-09T23:02:52.770Z,99902.70
2018-09-09T23:05:20.381Z,99894.11
2018-09-09T23:07:47.931Z,99894.25
2018-09-09T23:10:15.478Z,99894.17
2018-09-09T23:12:43.019Z,99899.91
2018-09-09T23:15:10.716Z,99894.52
2018-09-09T23:17:38.297Z,99887.88
2018-09-09T23:20:05.880Z,99887.78
2018-09-09T23:22:33.439Z,99888.88
2018-09-09T23:25:01.038Z,99891.39
2018-09-09T23:27:28.566Z,99884.63
2018-09-09T23:29:56.122Z,99885.80
2018-09-09T23:32:23.706Z,99881.94
2018-09-09T23:34:51.283Z,99875.20
2018-09-09T23:37:18.826Z,99878.14
2018-09-09T23:39:46.398Z,99876.80
2018-09-09T23:42:13.903Z,99867.55
2018-09-09T23:44:41.460Z,99866.71
2018-09-09T23:47:12.892Z,99872.21
2018-09-09T23:49:40.473Z,99877.38
2018-09-09T23:52:08.121Z,99878.17
2018-09-09T23:54:35.681Z,99871.27
2018-09-09T23:57:03.310Z,99873.64
2018-09-09T23:59:30.873Z,99868.25
